sensor_id;sensor_type;location;lat;lon;timestamp;P1;durP1;ratioP1;P2;durP2;ratioP2
54430;SDS011;40342;52.998;5.862;2023-11-22T00:01:49;6.57;;;4.45;;
54430;SDS011;40342;52.998;5.862;2023-11-22T00:04:15;5.10;;;4.50;;
54430;SDS011;40342;52.998;5.862;2023-11-22T00:06:40;4.43;;;4.13;;
54430;SDS011;40342;52.998;5.862;2023-11-22T00:09:06;6.55;;;4.55;;
54430;SDS011;40342;52.998;5.862;2023-11-22T00:11:32;4.90;;;4.50;;
54430;SDS011;40342;52.998;5.862;2023-11-22T00:13:57;5.55;;;4.95;;
54430;SDS011;40342;52.998;5.862;2023-11-22T00:16:23;5.55;;;5.05;;
54430;SDS011;40342;52.998;5.862;2023-11-22T00:18:48;5.22;;;4.80;;
54430;SDS011;40342;52.998;5.862;2023-11-22T00:21:14;5.78;;;5.28;;
54430;SDS011;40342;52.998;5.862;2023-11-22T00:23:40;5.25;;;4.85;;
54430;SDS011;40342;52.998;5.862;2023-11-22T00:26:06;6.32;;;5.70;;
54430;SDS011;40342;52.998;5.862;2023-11-22T00:28:32;6.05;;;5.55;;
54430;SDS011;40342;52.998;5.862;2023-11-22T00:30:57;5.47;;;4.97;;
54430;SDS011;40342;52.998;5.862;2023-11-22T00:33:23;6.57;;;5.97;;
54430;SDS011;40342;52.998;5.862;2023-11-22T00:35:49;5.97;;;5.45;;
54430;SDS011;40342;52.998;5.862;2023-11-22T00:38:15;5.75;;;5.25;;
54430;SDS011;40342;52.998;5.862;2023-11-22T00:40:41;6.30;;;5.70;;
54430;SDS011;40342;52.998;5.862;2023-11-22T00:43:07;6.38;;;5.88;;
54430;SDS011;40342;52.998;5.862;2023-11-22T00:45:33;8.32;;;6.03;;
54430;SDS011;40342;52.998;5.862;2023-11-22T00:48:00;6.28;;;5.78;;
54430;SDS011;40342;52.998;5.862;2023-11-22T00:50:26;6.72;;;6.03;;
54430;SDS011;40342;52.998;5.862;2023-11-22T00:52:51;6.63;;;6.03;;
54430;SDS011;40342;52.998;5.862;2023-11-22T00:55:17;6.80;;;6.15;;
54430;SDS011;40342;52.998;5.862;2023-11-22T00:57:42;6.78;;;6.18;;
54430;SDS011;40342;52.998;5.862;2023-11-22T01:00:08;7.22;;;6.47;;
54430;SDS011;40342;52.998;5.862;2023-11-22T01:02:35;6.80;;;6.15;;
54430;SDS011;40342;52.998;5.862;2023-11-22T01:05:04;6.80;;;6.07;;
54430;SDS011;40342;52.998;5.862;2023-11-22T01:07:33;6.57;;;6.03;;
54430;SDS011;40342;52.998;5.862;2023-11-22T01:09:58;6.45;;;5.88;;
54430;SDS011;40342;52.998;5.862;2023-11-22T01:12:24;6.88;;;6.22;;
54430;SDS011;40342;52.998;5.862;2023-11-22T01:14:49;9.27;;;6.32;;
54430;SDS011;40342;52.998;5.862;2023-11-22T01:17:15;6.88;;;6.28;;
54430;SDS011;40342;52.998;5.862;2023-11-22T01:19:40;6.72;;;6.13;;
54430;SDS011;40342;52.998;5.862;2023-11-22T01:22:06;9.55;;;6.55;;
54430;SDS011;40342;52.998;5.862;2023-11-22T01:24:32;7.65;;;6.53;;
54430;SDS011;40342;52.998;5.862;2023-11-22T01:26:57;6.90;;;6.30;;
54430;SDS011;40342;52.998;5.862;2023-11-22T01:29:23;5.65;;;5.15;;
54430;SDS011;40342;52.998;5.862;2023-11-22T01:31:48;5.57;;;5.07;;
54430;SDS011;40342;52.998;5.862;2023-11-22T01:34:14;6.15;;;5.55;;
54430;SDS011;40342;52.998;5.862;2023-11-22T01:36:43;7.78;;;6.10;;
54430;SDS011;40342;52.998;5.862;2023-11-22T01:39:10;6.80;;;6.00;;
54430;SDS011;40342;52.998;5.862;2023-11-22T01:41:38;6.75;;;6.05;;
54430;SDS011;40342;52.998;5.862;2023-11-22T01:44:04;8.15;;;6.00;;
54430;SDS011;40342;52.998;5.862;2023-11-22T01:46:29;6.38;;;5.78;;
54430;SDS011;40342;52.998;5.862;2023-11-22T01:48:55;8.50;;;6.90;;
54430;SDS011;40342;52.998;5.862;2023-11-22T01:51:21;6.95;;;6.25;;
54430;SDS011;40342;52.998;5.862;2023-11-22T01:53:49;6.75;;;6.15;;
54430;SDS011;40342;52.998;5.862;2023-11-22T01:56:18;6.90;;;6.28;;
54430;SDS011;40342;52.998;5.862;2023-11-22T01:58:45;9.50;;;6.90;;
54430;SDS011;40342;52.998;5.862;2023-11-22T02:01:12;6.97;;;6.38;;
54430;SDS011;40342;52.998;5.862;2023-11-22T02:03:37;7.28;;;6.57;;
54430;SDS011;40342;52.998;5.862;2023-11-22T02:06:04;6.75;;;6.10;;
54430;SDS011;40342;52.998;5.862;2023-11-22T02:08:30;7.78;;;6.97;;
54430;SDS011;40342;52.998;5.862;2023-11-22T02:10:57;6.30;;;5.80;;
54430;SDS011;40342;52.998;5.862;2023-11-22T02:13:30;6.10;;;5.53;;
54430;SDS011;40342;52.998;5.862;2023-11-22T02:15:56;5.53;;;5.13;;
54430;SDS011;40342;52.998;5.862;2023-11-22T02:18:24;6.00;;;4.78;;
54430;SDS011;40342;52.998;5.862;2023-11-22T02:20:51;4.45;;;4.15;;
54430;SDS011;40342;52.998;5.862;2023-11-22T02:23:16;5.85;;;5.22;;
54430;SDS011;40342;52.998;5.862;2023-11-22T02:25:42;6.85;;;6.32;;
54430;SDS011;40342;52.998;5.862;2023-11-22T02:28:08;7.20;;;6.57;;
54430;SDS011;40342;52.998;5.862;2023-11-22T02:30:34;7.30;;;6.68;;
54430;SDS011;40342;52.998;5.862;2023-11-22T02:33:00;7.93;;;7.10;;
54430;SDS011;40342;52.998;5.862;2023-11-22T02:35:25;8.68;;;7.30;;
54430;SDS011;40342;52.998;5.862;2023-11-22T02:37:52;7.30;;;6.55;;
54430;SDS011;40342;52.998;5.862;2023-11-22T02:40:18;5.65;;;5.15;;
54430;SDS011;40342;52.998;5.862;2023-11-22T02:42:46;4.53;;;4.22;;
54430;SDS011;40342;52.998;5.862;2023-11-22T02:45:13;4.18;;;3.88;;
54430;SDS011;40342;52.998;5.862;2023-11-22T02:47:41;4.15;;;3.55;;
54430;SDS011;40342;52.998;5.862;2023-11-22T02:50:11;2.92;;;2.72;;
54430;SDS011;40342;52.998;5.862;2023-11-22T02:52:37;3.28;;;3.08;;
54430;SDS011;40342;52.998;5.862;2023-11-22T02:55:03;3.80;;;3.60;;
54430;SDS011;40342;52.998;5.862;2023-11-22T02:57:32;4.13;;;3.83;;
54430;SDS011;40342;52.998;5.862;2023-11-22T02:59:58;4.90;;;4.50;;
54430;SDS011;40342;52.998;5.862;2023-11-22T03:02:23;5.15;;;4.75;;
54430;SDS011;40342;52.998;5.862;2023-11-22T03:04:49;6.05;;;5.55;;
54430;SDS011;40342;52.998;5.862;2023-11-22T03:07:15;5.80;;;5.30;;
54430;SDS011;40342;52.998;5.862;2023-11-22T03:09:42;5.35;;;4.45;;
54430;SDS011;40342;52.998;5.862;2023-11-22T03:12:09;5.10;;;4.70;;
54430;SDS011;40342;52.998;5.862;2023-11-22T03:14:35;6.15;;;5.65;;
54430;SDS011;40342;52.998;5.862;2023-11-22T03:17:00;6.50;;;5.93;;
54430;SDS011;40342;52.998;5.862;2023-11-22T03:19:26;6.65;;;6.05;;
54430;SDS011;40342;52.998;5.862;2023-11-22T03:21:52;6.32;;;5.78;;
54430;SDS011;40342;52.998;5.862;2023-11-22T03:24:18;5.20;;;4.80;;
54430;SDS011;40342;52.998;5.862;2023-11-22T03:26:43;7.63;;;4.88;;
54430;SDS011;40342;52.998;5.862;2023-11-22T03:29:10;8.65;;;4.05;;
54430;SDS011;40342;52.998;5.862;2023-11-22T03:31:36;4.63;;;4.22;;
54430;SDS011;40342;52.998;5.862;2023-11-22T03:34:03;8.15;;;5.25;;
54430;SDS011;40342;52.998;5.862;2023-11-22T03:36:30;5.50;;;5.10;;
54430;SDS011;40342;52.998;5.862;2023-11-22T03:38:55;7.20;;;6.50;;
54430;SDS011;40342;52.998;5.862;2023-11-22T03:41:21;6.18;;;5.57;;
54430;SDS011;40342;52.998;5.862;2023-11-22T03:43:46;10.38;;;5.65;;
54430;SDS011;40342;52.998;5.862;2023-11-22T03:46:12;6.10;;;5.25;;
54430;SDS011;40342;52.998;5.862;2023-11-22T03:48:38;5.90;;;5.40;;
54430;SDS011;40342;52.998;5.862;2023-11-22T03:51:03;6.50;;;5.88;;
54430;SDS011;40342;52.998;5.862;2023-11-22T03:53:29;6.32;;;5.82;;
54430;SDS011;40342;52.998;5.862;2023-11-22T03:55:54;6.00;;;5.50;;
54430;SDS011;40342;52.998;5.862;2023-11-22T03:58:20;4.57;;;4.10;;
54430;SDS011;40342;52.998;5.862;2023-11-22T04:00:46;9.52;;;5.28;;
54430;SDS011;40342;52.998;5.862;2023-11-22T04:03:12;5.82;;;5.32;;
54430;SDS011;40342;52.998;5.862;2023-11-22T04:05:37;5.03;;;4.70;;
54430;SDS011;40342;52.998;5.862;2023-11-22T04:08:03;8.25;;;3.97;;
54430;SDS011;40342;52.998;5.862;2023-11-22T04:10:29;4.78;;;3.13;;
54430;SDS011;40342;52.998;5.862;2023-11-22T04:12:55;2.75;;;2.53;;
54430;SDS011;40342;52.998;5.862;2023-11-22T04:15:21;7.05;;;2.40;;
54430;SDS011;40342;52.998;5.862;2023-11-22T04:17:47;5.20;;;2.42;;
54430;SDS011;40342;52.998;5.862;2023-11-22T04:20:12;2.05;;;1.95;;
54430;SDS011;40342;52.998;5.862;2023-11-22T04:22:40;2.10;;;2.00;;
54430;SDS011;40342;52.998;5.862;2023-11-22T04:25:06;2.67;;;2.50;;
54430;SDS011;40342;52.998;5.862;2023-11-22T04:27:33;2.13;;;2.03;;
54430;SDS011;40342;52.998;5.862;2023-11-22T04:29:59;2.08;;;1.98;;
54430;SDS011;40342;52.998;5.862;2023-11-22T04:32:25;2.67;;;2.40;;
54430;SDS011;40342;52.998;5.862;2023-11-22T04:34:51;51.85;;;4.20;;
54430;SDS011;40342;52.998;5.862;2023-11-22T04:37:16;5.20;;;2.90;;
54430;SDS011;40342;52.998;5.862;2023-11-22T04:39:42;3.08;;;2.88;;
54430;SDS011;40342;52.998;5.862;2023-11-22T04:42:07;5.57;;;3.20;;
54430;SDS011;40342;52.998;5.862;2023-11-22T04:44:33;9.02;;;2.25;;
54430;SDS011;40342;52.998;5.862;2023-11-22T04:46:59;3.63;;;1.70;;
54430;SDS011;40342;52.998;5.862;2023-11-22T04:49:24;1.90;;;1.80;;
54430;SDS011;40342;52.998;5.862;2023-11-22T04:51:50;1.98;;;1.88;;
54430;SDS011;40342;52.998;5.862;2023-11-22T04:54:16;3.08;;;2.88;;
54430;SDS011;40342;52.998;5.862;2023-11-22T04:56:42;4.97;;;4.15;;
54430;SDS011;40342;52.998;5.862;2023-11-22T04:59:11;3.47;;;3.25;;
54430;SDS011;40342;52.998;5.862;2023-11-22T05:01:36;3.85;;;3.55;;
54430;SDS011;40342;52.998;5.862;2023-11-22T05:04:03;4.22;;;3.92;;
54430;SDS011;40342;52.998;5.862;2023-11-22T05:06:29;5.28;;;3.50;;
54430;SDS011;40342;52.998;5.862;2023-11-22T05:08:54;3.80;;;3.50;;
54430;SDS011;40342;52.998;5.862;2023-11-22T05:11:20;5.63;;;4.80;;
54430;SDS011;40342;52.998;5.862;2023-11-22T05:13:46;8.90;;;6.47;;
54430;SDS011;40342;52.998;5.862;2023-11-22T05:16:12;9.13;;;8.18;;
54430;SDS011;40342;52.998;5.862;2023-11-22T05:18:38;9.40;;;8.40;;
54430;SDS011;40342;52.998;5.862;2023-11-22T05:21:04;8.93;;;8.02;;
54430;SDS011;40342;52.998;5.862;2023-11-22T05:23:30;10.70;;;8.55;;
54430;SDS011;40342;52.998;5.862;2023-11-22T05:25:57;10.10;;;8.10;;
54430;SDS011;40342;52.998;5.862;2023-11-22T05:28:24;10.20;;;8.50;;
54430;SDS011;40342;52.998;5.862;2023-11-22T05:30:50;9.05;;;7.78;;
54430;SDS011;40342;52.998;5.862;2023-11-22T05:33:16;9.88;;;8.05;;
54430;SDS011;40342;52.998;5.862;2023-11-22T05:35:41;9.65;;;8.15;;
54430;SDS011;40342;52.998;5.862;2023-11-22T05:38:07;9.35;;;7.93;;
54430;SDS011;40342;52.998;5.862;2023-11-22T05:40:33;8.85;;;7.95;;
54430;SDS011;40342;52.998;5.862;2023-11-22T05:42:59;10.40;;;8.93;;
54430;SDS011;40342;52.998;5.862;2023-11-22T05:45:25;11.13;;;8.80;;
54430;SDS011;40342;52.998;5.862;2023-11-22T05:47:51;10.65;;;9.40;;
54430;SDS011;40342;52.998;5.862;2023-11-22T05:50:17;12.57;;;9.43;;
54430;SDS011;40342;52.998;5.862;2023-11-22T05:52:43;11.57;;;8.80;;
54430;SDS011;40342;52.998;5.862;2023-11-22T05:55:09;12.38;;;9.85;;
54430;SDS011;40342;52.998;5.862;2023-11-22T05:57:35;11.35;;;10.23;;
54430;SDS011;40342;52.998;5.862;2023-11-22T06:00:01;14.07;;;9.85;;
54430;SDS011;40342;52.998;5.862;2023-11-22T06:02:27;14.38;;;11.48;;
54430;SDS011;40342;52.998;5.862;2023-11-22T06:04:53;15.00;;;10.93;;
54430;SDS011;40342;52.998;5.862;2023-11-22T06:07:18;14.02;;;11.05;;
54430;SDS011;40342;52.998;5.862;2023-11-22T06:09:44;12.80;;;10.77;;
54430;SDS011;40342;52.998;5.862;2023-11-22T06:12:09;13.80;;;12.00;;
54430;SDS011;40342;52.998;5.862;2023-11-22T06:14:35;16.92;;;11.77;;
54430;SDS011;40342;52.998;5.862;2023-11-22T06:17:01;14.68;;;11.88;;
54430;SDS011;40342;52.998;5.862;2023-11-22T06:19:28;15.15;;;11.75;;
54430;SDS011;40342;52.998;5.862;2023-11-22T06:21:53;13.90;;;11.48;;
54430;SDS011;40342;52.998;5.862;2023-11-22T06:24:19;14.90;;;11.82;;
54430;SDS011;40342;52.998;5.862;2023-11-22T06:26:45;14.05;;;11.73;;
54430;SDS011;40342;52.998;5.862;2023-11-22T06:29:13;15.80;;;12.70;;
54430;SDS011;40342;52.998;5.862;2023-11-22T06:31:39;13.88;;;11.75;;
54430;SDS011;40342;52.998;5.862;2023-11-22T06:34:05;15.20;;;11.32;;
54430;SDS011;40342;52.998;5.862;2023-11-22T06:36:31;14.02;;;11.20;;
54430;SDS011;40342;52.998;5.862;2023-11-22T06:38:56;15.07;;;11.15;;
54430;SDS011;40342;52.998;5.862;2023-11-22T06:41:22;13.68;;;11.70;;
54430;SDS011;40342;52.998;5.862;2023-11-22T06:43:47;13.25;;;11.50;;
54430;SDS011;40342;52.998;5.862;2023-11-22T06:46:13;15.10;;;11.18;;
54430;SDS011;40342;52.998;5.862;2023-11-22T06:48:41;14.52;;;12.35;;
54430;SDS011;40342;52.998;5.862;2023-11-22T06:51:08;16.80;;;12.18;;
54430;SDS011;40342;52.998;5.862;2023-11-22T06:53:34;13.98;;;11.55;;
54430;SDS011;40342;52.998;5.862;2023-11-22T06:56:00;19.35;;;12.43;;
54430;SDS011;40342;52.998;5.862;2023-11-22T06:58:26;15.43;;;12.63;;
54430;SDS011;40342;52.998;5.862;2023-11-22T07:00:52;16.83;;;12.85;;
54430;SDS011;40342;52.998;5.862;2023-11-22T07:03:17;14.82;;;12.25;;
54430;SDS011;40342;52.998;5.862;2023-11-22T07:05:43;13.23;;;11.80;;
54430;SDS011;40342;52.998;5.862;2023-11-22T07:08:09;17.00;;;13.43;;
54430;SDS011;40342;52.998;5.862;2023-11-22T07:10:36;15.40;;;12.65;;
54430;SDS011;40342;52.998;5.862;2023-11-22T07:13:02;17.65;;;13.35;;
54430;SDS011;40342;52.998;5.862;2023-11-22T07:15:28;14.35;;;12.23;;
54430;SDS011;40342;52.998;5.862;2023-11-22T07:17:53;18.67;;;12.48;;
54430;SDS011;40342;52.998;5.862;2023-11-22T07:20:22;16.00;;;13.43;;
54430;SDS011;40342;52.998;5.862;2023-11-22T07:22:48;16.55;;;13.23;;
54430;SDS011;40342;52.998;5.862;2023-11-22T07:25:20;14.70;;;13.18;;
54430;SDS011;40342;52.998;5.862;2023-11-22T07:27:49;17.38;;;13.57;;
54430;SDS011;40342;52.998;5.862;2023-11-22T07:30:16;15.48;;;13.43;;
54430;SDS011;40342;52.998;5.862;2023-11-22T07:32:44;17.17;;;13.35;;
54430;SDS011;40342;52.998;5.862;2023-11-22T07:35:10;16.63;;;13.68;;
54430;SDS011;40342;52.998;5.862;2023-11-22T07:37:36;17.88;;;13.73;;
54430;SDS011;40342;52.998;5.862;2023-11-22T07:40:07;19.55;;;13.18;;
54430;SDS011;40342;52.998;5.862;2023-11-22T07:42:35;20.60;;;13.85;;
54430;SDS011;40342;52.998;5.862;2023-11-22T07:45:01;18.08;;;13.65;;
54430;SDS011;40342;52.998;5.862;2023-11-22T07:47:27;17.67;;;14.05;;
54430;SDS011;40342;52.998;5.862;2023-11-22T07:49:53;16.83;;;14.07;;
54430;SDS011;40342;52.998;5.862;2023-11-22T07:52:20;17.80;;;14.40;;
54430;SDS011;40342;52.998;5.862;2023-11-22T07:54:46;19.40;;;14.73;;
54430;SDS011;40342;52.998;5.862;2023-11-22T07:57:13;19.13;;;15.25;;
54430;SDS011;40342;52.998;5.862;2023-11-22T07:59:39;17.88;;;15.27;;
54430;SDS011;40342;52.998;5.862;2023-11-22T08:02:05;20.52;;;14.95;;
54430;SDS011;40342;52.998;5.862;2023-11-22T08:04:36;20.00;;;15.15;;
54430;SDS011;40342;52.998;5.862;2023-11-22T08:07:05;19.00;;;14.77;;
54430;SDS011;40342;52.998;5.862;2023-11-22T08:09:31;19.83;;;14.63;;
54430;SDS011;40342;52.998;5.862;2023-11-22T08:11:58;18.75;;;15.32;;
54430;SDS011;40342;52.998;5.862;2023-11-22T08:14:25;18.65;;;14.80;;
54430;SDS011;40342;52.998;5.862;2023-11-22T08:16:53;21.15;;;15.25;;
54430;SDS011;40342;52.998;5.862;2023-11-22T08:19:18;20.63;;;16.08;;
54430;SDS011;40342;52.998;5.862;2023-11-22T08:21:44;20.77;;;15.35;;
54430;SDS011;40342;52.998;5.862;2023-11-22T08:24:09;21.08;;;16.15;;
54430;SDS011;40342;52.998;5.862;2023-11-22T08:26:37;18.63;;;15.00;;
54430;SDS011;40342;52.998;5.862;2023-11-22T08:29:04;19.42;;;16.20;;
54430;SDS011;40342;52.998;5.862;2023-11-22T08:31:30;20.85;;;15.90;;
54430;SDS011;40342;52.998;5.862;2023-11-22T08:33:55;20.52;;;16.02;;
54430;SDS011;40342;52.998;5.862;2023-11-22T08:36:22;20.40;;;15.02;;
54430;SDS011;40342;52.998;5.862;2023-11-22T08:38:48;20.92;;;15.45;;
54430;SDS011;40342;52.998;5.862;2023-11-22T08:41:14;21.75;;;15.57;;
54430;SDS011;40342;52.998;5.862;2023-11-22T08:43:40;21.25;;;15.60;;
54430;SDS011;40342;52.998;5.862;2023-11-22T08:46:06;23.45;;;16.30;;
54430;SDS011;40342;52.998;5.862;2023-11-22T08:48:33;18.45;;;15.38;;
54430;SDS011;40342;52.998;5.862;2023-11-22T08:50:59;17.38;;;15.18;;
54430;SDS011;40342;52.998;5.862;2023-11-22T08:53:26;18.77;;;15.52;;
54430;SDS011;40342;52.998;5.862;2023-11-22T08:55:52;19.40;;;15.55;;
54430;SDS011;40342;52.998;5.862;2023-11-22T08:58:20;19.17;;;15.13;;
54430;SDS011;40342;52.998;5.862;2023-11-22T09:00:46;20.58;;;16.60;;
54430;SDS011;40342;52.998;5.862;2023-11-22T09:03:12;19.63;;;16.20;;
54430;SDS011;40342;52.998;5.862;2023-11-22T09:05:38;19.98;;;15.85;;
54430;SDS011;40342;52.998;5.862;2023-11-22T09:08:05;21.83;;;14.95;;
54430;SDS011;40342;52.998;5.862;2023-11-22T09:10:31;18.13;;;15.50;;
54430;SDS011;40342;52.998;5.862;2023-11-22T09:12:56;20.73;;;15.48;;
54430;SDS011;40342;52.998;5.862;2023-11-22T09:15:24;21.98;;;16.15;;
54430;SDS011;40342;52.998;5.862;2023-11-22T09:17:51;19.45;;;15.80;;
54430;SDS011;40342;52.998;5.862;2023-11-22T09:20:19;20.40;;;16.48;;
54430;SDS011;40342;52.998;5.862;2023-11-22T09:22:54;21.75;;;16.50;;
54430;SDS011;40342;52.998;5.862;2023-11-22T09:25:20;18.98;;;15.43;;
54430;SDS011;40342;52.998;5.862;2023-11-22T09:27:50;19.17;;;16.02;;
54430;SDS011;40342;52.998;5.862;2023-11-22T09:30:20;22.08;;;16.48;;
54430;SDS011;40342;52.998;5.862;2023-11-22T09:33:07;22.45;;;16.65;;
54430;SDS011;40342;52.998;5.862;2023-11-22T09:35:39;19.60;;;15.43;;
54430;SDS011;40342;52.998;5.862;2023-11-22T09:38:06;20.58;;;15.90;;
54430;SDS011;40342;52.998;5.862;2023-11-22T09:40:43;19.23;;;16.55;;
54430;SDS011;40342;52.998;5.862;2023-11-22T09:43:14;19.35;;;15.85;;
54430;SDS011;40342;52.998;5.862;2023-11-22T09:45:42;17.83;;;15.65;;
54430;SDS011;40342;52.998;5.862;2023-11-22T09:48:19;18.83;;;14.98;;
54430;SDS011;40342;52.998;5.862;2023-11-22T09:53:33;19.40;;;15.27;;
54430;SDS011;40342;52.998;5.862;2023-11-22T09:56:03;17.17;;;15.30;;
54430;SDS011;40342;52.998;5.862;2023-11-22T09:58:32;17.45;;;15.15;;
54430;SDS011;40342;52.998;5.862;2023-11-22T10:00:59;18.20;;;14.68;;
54430;SDS011;40342;52.998;5.862;2023-11-22T10:03:26;19.25;;;15.65;;
54430;SDS011;40342;52.998;5.862;2023-11-22T10:05:54;20.13;;;16.25;;
54430;SDS011;40342;52.998;5.862;2023-11-22T10:08:29;17.92;;;15.63;;
54430;SDS011;40342;52.998;5.862;2023-11-22T10:10:57;19.13;;;15.30;;
54430;SDS011;40342;52.998;5.862;2023-11-22T10:13:24;18.13;;;15.48;;
54430;SDS011;40342;52.998;5.862;2023-11-22T10:15:50;18.77;;;15.13;;
54430;SDS011;40342;52.998;5.862;2023-11-22T10:18:17;20.52;;;15.90;;
54430;SDS011;40342;52.998;5.862;2023-11-22T10:20:43;19.30;;;15.55;;
54430;SDS011;40342;52.998;5.862;2023-11-22T10:23:15;18.75;;;15.05;;
54430;SDS011;40342;52.998;5.862;2023-11-22T10:25:45;19.50;;;14.88;;
54430;SDS011;40342;52.998;5.862;2023-11-22T10:28:18;17.50;;;15.45;;
54430;SDS011;40342;52.998;5.862;2023-11-22T10:30:45;18.67;;;14.63;;
54430;SDS011;40342;52.998;5.862;2023-11-22T10:33:10;17.75;;;14.77;;
54430;SDS011;40342;52.998;5.862;2023-11-22T10:35:49;17.23;;;15.23;;
54430;SDS011;40342;52.998;5.862;2023-11-22T10:38:16;17.05;;;15.25;;
54430;SDS011;40342;52.998;5.862;2023-11-22T10:40:42;17.92;;;14.15;;
54430;SDS011;40342;52.998;5.862;2023-11-22T10:43:13;18.15;;;15.10;;
54430;SDS011;40342;52.998;5.862;2023-11-22T10:45:40;17.80;;;15.90;;
54430;SDS011;40342;52.998;5.862;2023-11-22T10:48:11;17.73;;;15.05;;
54430;SDS011;40342;52.998;5.862;2023-11-22T10:50:40;19.15;;;15.02;;
54430;SDS011;40342;52.998;5.862;2023-11-22T10:53:07;16.80;;;13.77;;
54430;SDS011;40342;52.998;5.862;2023-11-22T10:55:49;15.80;;;14.20;;
54430;SDS011;40342;52.998;5.862;2023-11-22T10:58:22;15.32;;;13.07;;
54430;SDS011;40342;52.998;5.862;2023-11-22T11:00:50;15.70;;;14.00;;
54430;SDS011;40342;52.998;5.862;2023-11-22T11:03:20;16.05;;;14.35;;
54430;SDS011;40342;52.998;5.862;2023-11-22T11:05:50;15.95;;;13.02;;
54430;SDS011;40342;52.998;5.862;2023-11-22T11:08:19;16.73;;;13.70;;
54430;SDS011;40342;52.998;5.862;2023-11-22T11:10:48;18.42;;;13.70;;
54430;SDS011;40342;52.998;5.862;2023-11-22T11:13:17;19.02;;;13.15;;
54430;SDS011;40342;52.998;5.862;2023-11-22T11:15:43;14.68;;;13.07;;
54430;SDS011;40342;52.998;5.862;2023-11-22T11:18:13;15.50;;;13.90;;
54430;SDS011;40342;52.998;5.862;2023-11-22T11:20:50;14.52;;;13.00;;
54430;SDS011;40342;52.998;5.862;2023-11-22T11:23:20;17.40;;;12.98;;
54430;SDS011;40342;52.998;5.862;2023-11-22T11:25:48;14.48;;;12.93;;
54430;SDS011;40342;52.998;5.862;2023-11-22T11:28:21;13.73;;;12.20;;
54430;SDS011;40342;52.998;5.862;2023-11-22T11:30:47;14.80;;;13.15;;
54430;SDS011;40342;52.998;5.862;2023-11-22T11:33:14;14.73;;;12.43;;
54430;SDS011;40342;52.998;5.862;2023-11-22T11:35:43;14.55;;;12.75;;
54430;SDS011;40342;52.998;5.862;2023-11-22T11:38:16;16.77;;;15.07;;
54430;SDS011;40342;52.998;5.862;2023-11-22T11:40:51;19.17;;;16.33;;
54430;SDS011;40342;52.998;5.862;2023-11-22T11:46:14;27.63;;;19.23;;
54430;SDS011;40342;52.998;5.862;2023-11-22T11:48:44;14.85;;;12.25;;
54430;SDS011;40342;52.998;5.862;2023-11-22T11:51:14;13.52;;;11.70;;
54430;SDS011;40342;52.998;5.862;2023-11-22T11:53:40;16.05;;;12.63;;
54430;SDS011;40342;52.998;5.862;2023-11-22T11:56:06;14.02;;;12.23;;
54430;SDS011;40342;52.998;5.862;2023-11-22T11:58:32;15.23;;;13.35;;
54430;SDS011;40342;52.998;5.862;2023-11-22T12:00:58;14.07;;;12.60;;
54430;SDS011;40342;52.998;5.862;2023-11-22T12:03:24;13.02;;;11.70;;
54430;SDS011;40342;52.998;5.862;2023-11-22T12:05:49;15.23;;;12.25;;
54430;SDS011;40342;52.998;5.862;2023-11-22T12:08:15;11.95;;;10.75;;
54430;SDS011;40342;52.998;5.862;2023-11-22T12:10:42;13.15;;;11.85;;
54430;SDS011;40342;52.998;5.862;2023-11-22T12:13:08;13.45;;;11.75;;
54430;SDS011;40342;52.998;5.862;2023-11-22T12:15:34;13.13;;;11.75;;
54430;SDS011;40342;52.998;5.862;2023-11-22T12:18:00;13.27;;;11.65;;
54430;SDS011;40342;52.998;5.862;2023-11-22T12:20:26;12.57;;;11.32;;
54430;SDS011;40342;52.998;5.862;2023-11-22T12:22:57;12.43;;;11.10;;
54430;SDS011;40342;52.998;5.862;2023-11-22T12:25:26;12.90;;;11.60;;
54430;SDS011;40342;52.998;5.862;2023-11-22T12:27:55;12.00;;;10.55;;
54430;SDS011;40342;52.998;5.862;2023-11-22T12:30:28;12.48;;;11.18;;
54430;SDS011;40342;52.998;5.862;2023-11-22T12:32:56;15.15;;;11.52;;
54430;SDS011;40342;52.998;5.862;2023-11-22T12:35:25;11.90;;;10.70;;
54430;SDS011;40342;52.998;5.862;2023-11-22T12:37:50;13.02;;;11.70;;
54430;SDS011;40342;52.998;5.862;2023-11-22T12:40:20;12.55;;;11.05;;
54430;SDS011;40342;52.998;5.862;2023-11-22T12:42:52;11.60;;;10.40;;
54430;SDS011;40342;52.998;5.862;2023-11-22T12:45:25;12.23;;;11.02;;
54430;SDS011;40342;52.998;5.862;2023-11-22T12:47:53;13.73;;;11.77;;
54430;SDS011;40342;52.998;5.862;2023-11-22T12:50:29;12.15;;;10.85;;
54430;SDS011;40342;52.998;5.862;2023-11-22T12:52:59;13.55;;;11.27;;
54430;SDS011;40342;52.998;5.862;2023-11-22T12:58:00;13.50;;;12.07;;
54430;SDS011;40342;52.998;5.862;2023-11-22T13:00:28;12.52;;;11.23;;
54430;SDS011;40342;52.998;5.862;2023-11-22T13:02:57;12.02;;;10.82;;
54430;SDS011;40342;52.998;5.862;2023-11-22T13:05:23;14.82;;;11.15;;
54430;SDS011;40342;52.998;5.862;2023-11-22T13:07:49;12.77;;;11.50;;
54430;SDS011;40342;52.998;5.862;2023-11-22T13:10:15;13.20;;;11.02;;
54430;SDS011;40342;52.998;5.862;2023-11-22T13:12:42;12.32;;;10.75;;
54430;SDS011;40342;52.998;5.862;2023-11-22T13:15:09;12.43;;;11.23;;
54430;SDS011;40342;52.998;5.862;2023-11-22T13:17:36;12.98;;;11.40;;
54430;SDS011;40342;52.998;5.862;2023-11-22T13:20:08;13.48;;;12.00;;
54430;SDS011;40342;52.998;5.862;2023-11-22T13:22:39;12.60;;;11.40;;
54430;SDS011;40342;52.998;5.862;2023-11-22T13:25:08;13.10;;;11.80;;
54430;SDS011;40342;52.998;5.862;2023-11-22T13:27:35;12.15;;;10.95;;
54430;SDS011;40342;52.998;5.862;2023-11-22T13:30:01;13.00;;;11.65;;
54430;SDS011;40342;52.998;5.862;2023-11-22T13:32:27;13.77;;;11.93;;
54430;SDS011;40342;52.998;5.862;2023-11-22T13:34:53;13.05;;;11.77;;
54430;SDS011;40342;52.998;5.862;2023-11-22T13:37:23;13.48;;;11.40;;
54430;SDS011;40342;52.998;5.862;2023-11-22T13:39:49;13.60;;;12.25;;
54430;SDS011;40342;52.998;5.862;2023-11-22T13:42:15;13.70;;;12.30;;
54430;SDS011;40342;52.998;5.862;2023-11-22T13:44:40;15.57;;;12.38;;
54430;SDS011;40342;52.998;5.862;2023-11-22T13:47:06;13.77;;;12.38;;
54430;SDS011;40342;52.998;5.862;2023-11-22T13:49:33;14.25;;;12.77;;
54430;SDS011;40342;52.998;5.862;2023-11-22T13:51:59;16.02;;;12.85;;
54430;SDS011;40342;52.998;5.862;2023-11-22T13:54:24;12.82;;;11.50;;
54430;SDS011;40342;52.998;5.862;2023-11-22T13:56:50;15.82;;;12.95;;
54430;SDS011;40342;52.998;5.862;2023-11-22T13:59:16;13.82;;;12.43;;
54430;SDS011;40342;52.998;5.862;2023-11-22T14:01:42;13.45;;;12.02;;
54430;SDS011;40342;52.998;5.862;2023-11-22T14:04:07;13.27;;;11.98;;
54430;SDS011;40342;52.998;5.862;2023-11-22T14:06:33;17.60;;;12.77;;
54430;SDS011;40342;52.998;5.862;2023-11-22T14:08:58;14.25;;;12.75;;
54430;SDS011;40342;52.998;5.862;2023-11-22T14:11:24;14.40;;;12.90;;
54430;SDS011;40342;52.998;5.862;2023-11-22T14:13:50;13.82;;;12.43;;
54430;SDS011;40342;52.998;5.862;2023-11-22T14:16:15;14.45;;;12.63;;
54430;SDS011;40342;52.998;5.862;2023-11-22T14:18:41;14.63;;;13.07;;
54430;SDS011;40342;52.998;5.862;2023-11-22T14:21:06;12.55;;;11.30;;
54430;SDS011;40342;52.998;5.862;2023-11-22T14:23:32;13.82;;;12.10;;
54430;SDS011;40342;52.998;5.862;2023-11-22T14:25:58;14.00;;;12.50;;
54430;SDS011;40342;52.998;5.862;2023-11-22T14:28:24;13.82;;;12.50;;
54430;SDS011;40342;52.998;5.862;2023-11-22T14:30:49;13.27;;;12.07;;
54430;SDS011;40342;52.998;5.862;2023-11-22T14:33:19;14.52;;;12.50;;
54430;SDS011;40342;52.998;5.862;2023-11-22T14:35:45;15.65;;;12.43;;
54430;SDS011;40342;52.998;5.862;2023-11-22T14:38:11;14.48;;;12.73;;